sensor_id;sensor_type;location;lat;lon;timestamp;temperature;humidity
39695;DHT22;25367;-35.352;149.036;2024-03-06T06:42:23;25.00;51.90
39695;DHT22;25367;-35.352;149.036;2024-03-06T06:44:53;25.10;53.10
39695;DHT22;25367;-35.352;149.036;2024-03-06T06:47:22;25.30;53.30
39695;DHT22;25367;-35.352;149.036;2024-03-06T06:49:52;25.50;53.00
39695;DHT22;25367;-35.352;149.036;2024-03-06T06:52:21;25.70;52.50
39695;DHT22;25367;-35.352;149.036;2024-03-06T06:54:54;25.80;52.10
39695;DHT22;25367;-35.352;149.036;2024-03-06T06:57:25;25.90;52.20
39695;DHT22;25367;-35.352;149.036;2024-03-06T06:59:55;26.00;52.20
39695;DHT22;25367;-35.352;149.036;2024-03-06T07:02:25;26.10;52.00
39695;DHT22;25367;-35.352;149.036;2024-03-06T07:04:54;26.20;52.00
39695;DHT22;25367;-35.352;149.036;2024-03-06T07:07:23;26.30;52.30
39695;DHT22;25367;-35.352;149.036;2024-03-06T07:09:53;26.40;51.90
39695;DHT22;25367;-35.352;149.036;2024-03-06T07:12:24;26.40;51.80
39695;DHT22;25367;-35.352;149.036;2024-03-06T07:14:54;26.50;51.70
39695;DHT22;25367;-35.352;149.036;2024-03-06T07:17:23;26.60;51.60
39695;DHT22;25367;-35.352;149.036;2024-03-06T07:19:53;26.60;51.40
39695;DHT22;25367;-35.352;149.036;2024-03-06T07:22:22;26.70;51.40
39695;DHT22;25367;-35.352;149.036;2024-03-06T07:24:52;26.70;51.30
39695;DHT22;25367;-35.352;149.036;2024-03-06T07:27:21;26.80;51.20
39695;DHT22;25367;-35.352;149.036;2024-03-06T07:29:52;26.80;51.10
39695;DHT22;25367;-35.352;149.036;2024-03-06T07:32:22;26.80;51.00
39695;DHT22;25367;-35.352;149.036;2024-03-06T07:34:52;26.90;51.00
39695;DHT22;25367;-35.352;149.036;2024-03-06T07:37:21;26.90;50.90
39695;DHT22;25367;-35.352;149.036;2024-03-06T07:39:50;26.90;50.90
39695;DHT22;25367;-35.352;149.036;2024-03-06T07:42:20;27.00;50.80
39695;DHT22;25367;-35.352;149.036;2024-03-06T07:44:51;27.00;50.70
39695;DHT22;25367;-35.352;149.036;2024-03-06T07:47:21;27.00;50.70
39695;DHT22;25367;-35.352;149.036;2024-03-06T07:49:50;27.10;50.70
39695;DHT22;25367;-35.352;149.036;2024-03-06T07:52:20;27.10;50.60
39695;DHT22;25367;-35.352;149.036;2024-03-06T07:54:49;27.10;50.60
39695;DHT22;25367;-35.352;149.036;2024-03-06T07:57:19;27.20;50.40
39695;DHT22;25367;-35.352;149.036;2024-03-06T07:59:48;27.20;50.20
39695;DHT22;25367;-35.352;149.036;2024-03-06T08:02:19;27.20;50.00
39695;DHT22;25367;-35.352;149.036;2024-03-06T08:04:49;27.20;49.70
39695;DHT22;25367;-35.352;149.036;2024-03-06T08:07:19;27.20;49.80
39695;DHT22;25367;-35.352;149.036;2024-03-06T08:09:48;27.20;49.70
39695;DHT22;25367;-35.352;149.036;2024-03-06T08:12:18;27.20;49.60
39695;DHT22;25367;-35.352;149.036;2024-03-06T08:14:47;27.20;49.50
39695;DHT22;25367;-35.352;149.036;2024-03-06T08:17:18;27.30;49.50
39695;DHT22;25367;-35.352;149.036;2024-03-06T08:19:48;27.30;49.50
39695;DHT22;25367;-35.352;149.036;2024-03-06T08:22:17;27.30;49.30
39695;DHT22;25367;-35.352;149.036;2024-03-06T08:24:47;27.30;49.30
39695;DHT22;25367;-35.352;149.036;2024-03-06T08:27:16;27.30;49.20
39695;DHT22;25367;-35.352;149.036;2024-03-06T08:29:45;27.30;49.10
39695;DHT22;25367;-35.352;149.036;2024-03-06T08:32:15;27.30;49.10
39695;DHT22;25367;-35.352;149.036;2024-03-06T08:34:46;27.30;49.00
39695;DHT22;25367;-35.352;149.036;2024-03-06T08:37:15;27.30;48.90
39695;DHT22;25367;-35.352;149.036;2024-03-06T08:39:45;27.40;49.00
39695;DHT22;25367;-35.352;149.036;2024-03-06T08:42:14;27.30;48.90
39695;DHT22;25367;-35.352;149.036;2024-03-06T08:44:44;27.30;49.00
39695;DHT22;25367;-35.352;149.036;2024-03-06T08:47:13;27.30;49.00
39695;DHT22;25367;-35.352;149.036;2024-03-06T08:49:45;27.40;49.10
39695;DHT22;25367;-35.352;149.036;2024-03-06T08:52:15;27.40;49.10
39695;DHT22;25367;-35.352;149.036;2024-03-06T08:54:44;27.40;49.20
39695;DHT22;25367;-35.352;149.036;2024-03-06T08:57:14;27.40;49.20
39695;DHT22;25367;-35.352;149.036;2024-03-06T08:59:43;27.40;49.20
39695;DHT22;25367;-35.352;149.036;2024-03-06T09:02:17;27.40;49.20
39695;DHT22;25367;-35.352;149.036;2024-03-06T09:04:48;27.40;49.20
39695;DHT22;25367;-35.352;149.036;2024-03-06T09:07:18;27.40;49.20
39695;DHT22;25367;-35.352;149.036;2024-03-06T09:09:48;27.40;49.20
39695;DHT22;25367;-35.352;149.036;2024-03-06T09:12:18;27.40;49.10
39695;DHT22;25367;-35.352;149.036;2024-03-06T09:14:47;27.40;49.10
39695;DHT22;25367;-35.352;149.036;2024-03-06T09:17:16;27.40;49.00
39695;DHT22;25367;-35.352;149.036;2024-03-06T09:19:48;27.40;49.00
39695;DHT22;25367;-35.352;149.036;2024-03-06T09:22:17;27.40;48.90
39695;DHT22;25367;-35.352;149.036;2024-03-06T09:24:47;27.40;48.80
39695;DHT22;25367;-35.352;149.036;2024-03-06T09:27:16;27.40;48.70
39695;DHT22;25367;-35.352;149.036;2024-03-06T09:29:46;27.40;48.70
39695;DHT22;25367;-35.352;149.036;2024-03-06T09:32:15;27.40;48.70
39695;DHT22;25367;-35.352;149.036;2024-03-06T09:34:47;27.40;48.60
39695;DHT22;25367;-35.352;149.036;2024-03-06T09:37:16;27.40;48.60
39695;DHT22;25367;-35.352;149.036;2024-03-06T09:39:46;27.40;48.40
39695;DHT22;25367;-35.352;149.036;2024-03-06T09:42:15;27.40;48.60
39695;DHT22;25367;-35.352;149.036;2024-03-06T09:44:45;27.40;48.50
39695;DHT22;25367;-35.352;149.036;2024-03-06T09:47:15;27.40;48.60
39695;DHT22;25367;-35.352;149.036;2024-03-06T09:49:50;27.40;48.50
39695;DHT22;25367;-35.352;149.036;2024-03-06T09:52:20;27.40;49.10
39695;DHT22;25367;-35.352;149.036;2024-03-06T09:54:51;27.30;48.40
39695;DHT22;25367;-35.352;149.036;2024-03-06T09:57:23;27.40;48.40
39695;DHT22;25367;-35.352;149.036;2024-03-06T09:59:52;27.40;48.50
39695;DHT22;25367;-35.352;149.036;2024-03-06T10:02:34;27.30;48.30
39695;DHT22;25367;-35.352;149.036;2024-03-06T10:05:21;27.40;48.40
39695;DHT22;25367;-35.352;149.036;2024-03-06T10:07:52;27.40;48.40
39695;DHT22;25367;-35.352;149.036;2024-03-06T10:10:22;27.40;48.20
39695;DHT22;25367;-35.352;149.036;2024-03-06T10:12:51;27.40;48.20
39695;DHT22;25367;-35.352;149.036;2024-03-06T10:15:21;27.40;48.10
39695;DHT22;25367;-35.352;149.036;2024-03-06T10:17:50;27.40;48.10
39695;DHT22;25367;-35.352;149.036;2024-03-06T10:20:24;27.40;47.80
39695;DHT22;25367;-35.352;149.036;2024-03-06T10:22:54;27.40;48.10
39695;DHT22;25367;-35.352;149.036;2024-03-06T10:25:24;27.40;48.00
39695;DHT22;25367;-35.352;149.036;2024-03-06T10:28:06;27.40;47.90
39695;DHT22;25367;-35.352;149.036;2024-03-06T10:30:37;27.40;48.00
39695;DHT22;25367;-35.352;149.036;2024-03-06T10:33:07;27.40;47.90
39695;DHT22;25367;-35.352;149.036;2024-03-06T10:35:40;27.40;47.90
39695;DHT22;25367;-35.352;149.036;2024-03-06T10:38:10;27.40;47.80
39695;DHT22;25367;-35.352;149.036;2024-03-06T10:40:41;27.40;47.60
39695;DHT22;25367;-35.352;149.036;2024-03-06T10:43:11;27.40;47.60
39695;DHT22;25367;-35.352;149.036;2024-03-06T10:45:48;27.40;47.60
39695;DHT22;25367;-35.352;149.036;2024-03-06T10:48:19;27.40;47.50
39695;DHT22;25367;-35.352;149.036;2024-03-06T10:50:52;27.40;47.40
39695;DHT22;25367;-35.352;149.036;2024-03-06T10:53:23;27.40;47.30
39695;DHT22;25367;-35.352;149.036;2024-03-06T10:55:55;27.40;47.40
39695;DHT22;25367;-35.352;149.036;2024-03-06T10:58:27;27.40;47.30
39695;DHT22;25367;-35.352;149.036;2024-03-06T11:00:59;27.40;47.30
39695;DHT22;25367;-35.352;149.036;2024-03-06T11:03:29;27.40;47.50
39695;DHT22;25367;-35.352;149.036;2024-03-06T11:06:01;27.40;47.30
39695;DHT22;25367;-35.352;149.036;2024-03-06T11:08:32;27.50;47.30
39695;DHT22;25367;-35.352;149.036;2024-03-06T11:11:22;27.40;47.30
39695;DHT22;25367;-35.352;149.036;2024-03-06T11:13:56;27.50;47.50
39695;DHT22;25367;-35.352;149.036;2024-03-06T11:16:30;27.40;47.30
39695;DHT22;25367;-35.352;149.036;2024-03-06T11:19:07;27.50;47.20
39695;DHT22;25367;-35.352;149.036;2024-03-06T11:21:50;27.50;47.30
39695;DHT22;25367;-35.352;149.036;2024-03-06T11:24:22;27.50;47.40
39695;DHT22;25367;-35.352;149.036;2024-03-06T11:26:56;27.40;47.30
39695;DHT22;25367;-35.352;149.036;2024-03-06T11:29:29;27.50;47.10
39695;DHT22;25367;-35.352;149.036;2024-03-06T11:32:04;27.50;47.60
39695;DHT22;25367;-35.352;149.036;2024-03-06T11:34:35;27.50;47.00
39695;DHT22;25367;-35.352;149.036;2024-03-06T11:37:12;27.50;46.80
39695;DHT22;25367;-35.352;149.036;2024-03-06T11:39:42;27.50;46.90
39695;DHT22;25367;-35.352;149.036;2024-03-06T11:42:15;27.50;46.80
39695;DHT22;25367;-35.352;149.036;2024-03-06T11:44:59;27.50;46.70
39695;DHT22;25367;-35.352;149.036;2024-03-06T11:47:29;27.60;47.00
39695;DHT22;25367;-35.352;149.036;2024-03-06T11:49:59;27.50;46.70
39695;DHT22;25367;-35.352;149.036;2024-03-06T11:52:35;27.50;46.70
39695;DHT22;25367;-35.352;149.036;2024-03-06T11:55:09;27.50;46.70
39695;DHT22;25367;-35.352;149.036;2024-03-06T11:57:40;27.50;46.60
39695;DHT22;25367;-35.352;149.036;2024-03-06T12:00:11;27.50;46.40
39695;DHT22;25367;-35.352;149.036;2024-03-06T12:02:41;27.50;46.50
39695;DHT22;25367;-35.352;149.036;2024-03-06T12:05:12;27.60;46.50
39695;DHT22;25367;-35.352;149.036;2024-03-06T12:07:52;27.50;46.40
39695;DHT22;25367;-35.352;149.036;2024-03-06T12:10:22;27.60;46.70
39695;DHT22;25367;-35.352;149.036;2024-03-06T12:12:52;27.60;46.50
39695;DHT22;25367;-35.352;149.036;2024-03-06T12:15:24;27.50;46.40
39695;DHT22;25367;-35.352;149.036;2024-03-06T12:17:55;27.60;46.50
39695;DHT22;25367;-35.352;149.036;2024-03-06T12:20:26;27.60;46.50
39695;DHT22;25367;-35.352;149.036;2024-03-06T12:23:02;27.60;46.50
39695;DHT22;25367;-35.352;149.036;2024-03-06T12:25:33;27.60;46.50
39695;DHT22;25367;-35.352;149.036;2024-03-06T12:28:08;27.60;46.30
39695;DHT22;25367;-35.352;149.036;2024-03-06T12:30:42;27.60;46.40
39695;DHT22;25367;-35.352;149.036;2024-03-06T12:33:16;27.60;46.30
39695;DHT22;25367;-35.352;149.036;2024-03-06T12:35:46;27.60;46.30
39695;DHT22;25367;-35.352;149.036;2024-03-06T12:38:18;27.60;46.20
39695;DHT22;25367;-35.352;149.036;2024-03-06T12:40:49;27.60;46.20
39695;DHT22;25367;-35.352;149.036;2024-03-06T12:43:20;27.60;46.20
39695;DHT22;25367;-35.352;149.036;2024-03-06T12:45:50;27.60;46.10
39695;DHT22;25367;-35.352;149.036;2024-03-06T12:48:19;27.60;46.00
39695;DHT22;25367;-35.352;149.036;2024-03-06T12:50:49;27.60;46.10
39695;DHT22;25367;-35.352;149.036;2024-03-06T12:53:25;27.60;46.00
39695;DHT22;25367;-35.352;149.036;2024-03-06T12:55:55;27.60;46.10
39695;DHT22;25367;-35.352;149.036;2024-03-06T12:58:24;27.60;46.00
39695;DHT22;25367;-35.352;149.036;2024-03-06T13:00:54;27.60;46.00
39695;DHT22;25367;-35.352;149.036;2024-03-06T13:03:24;27.60;46.00
39695;DHT22;25367;-35.352;149.036;2024-03-06T13:05:55;27.60;45.90
39695;DHT22;25367;-35.352;149.036;2024-03-06T13:08:28;27.60;45.80
39695;DHT22;25367;-35.352;149.036;2024-03-06T13:10:58;27.60;45.80
39695;DHT22;25367;-35.352;149.036;2024-03-06T13:13:28;27.60;45.80
39695;DHT22;25367;-35.352;149.036;2024-03-06T13:15:58;27.60;45.80
39695;DHT22;25367;-35.352;149.036;2024-03-06T13:18:28;27.60;45.70
39695;DHT22;25367;-35.352;149.036;2024-03-06T21:01:20;23.00;47.90
39695;DHT22;25367;-35.352;149.036;2024-03-06T21:03:50;23.00;48.70
39695;DHT22;25367;-35.352;149.036;2024-03-06T21:06:19;23.10;48.70
39695;DHT22;25367;-35.352;149.036;2024-03-06T21:08:49;23.30;48.60
39695;DHT22;25367;-35.352;149.036;2024-03-06T21:11:18;23.50;48.50
39695;DHT22;25367;-35.352;149.036;2024-03-06T21:13:47;23.60;48.40
39695;DHT22;25367;-35.352;149.036;2024-03-06T21:16:19;23.70;48.20
39695;DHT22;25367;-35.352;149.036;2024-03-06T21:18:48;23.80;48.10
39695;DHT22;25367;-35.352;149.036;2024-03-06T21:21:18;23.90;48.20
39695;DHT22;25367;-35.352;149.036;2024-03-06T21:23:47;24.00;48.20
39695;DHT22;25367;-35.352;149.036;2024-03-06T21:26:17;24.00;48.10
39695;DHT22;25367;-35.352;149.036;2024-03-06T21:28:46;24.00;48.60
39695;DHT22;25367;-35.352;149.036;2024-03-06T21:31:16;24.10;47.90
39695;DHT22;25367;-35.352;149.036;2024-03-06T21:33:47;24.10;47.80
39695;DHT22;25367;-35.352;149.036;2024-03-06T21:36:16;24.20;47.80
39695;DHT22;25367;-35.352;149.036;2024-03-06T21:38:46;24.20;47.90
39695;DHT22;25367;-35.352;149.036;2024-03-06T21:41:15;24.30;48.10
39695;DHT22;25367;-35.352;149.036;2024-03-06T21:43:44;24.30;47.90
39695;DHT22;25367;-35.352;149.036;2024-03-06T21:46:14;24.30;47.90
39695;DHT22;25367;-35.352;149.036;2024-03-06T21:48:45;24.40;48.00
39695;DHT22;25367;-35.352;149.036;2024-03-06T21:51:14;24.40;48.00
39695;DHT22;25367;-35.352;149.036;2024-03-06T21:53:44;24.40;48.00
39695;DHT22;25367;-35.352;149.036;2024-03-06T21:56:13;24.40;48.00
39695;DHT22;25367;-35.352;149.036;2024-03-06T21:58:43;24.50;48.00
39695;DHT22;25367;-35.352;149.036;2024-03-06T22:01:12;24.50;48.00
39695;DHT22;25367;-35.352;149.036;2024-03-06T22:03:41;24.60;48.00
39695;DHT22;25367;-35.352;149.036;2024-03-06T22:06:13;24.60;48.00
39695;DHT22;25367;-35.352;149.036;2024-03-06T22:08:43;24.60;48.10
39695;DHT22;25367;-35.352;149.036;2024-03-06T22:11:12;24.60;48.00
39695;DHT22;25367;-35.352;149.036;2024-03-06T22:13:41;24.60;48.00
39695;DHT22;25367;-35.352;149.036;2024-03-06T22:16:11;24.70;48.10
39695;DHT22;25367;-35.352;149.036;2024-03-06T22:18:40;24.70;48.10
39695;DHT22;25367;-35.352;149.036;2024-03-06T22:21:13;24.70;48.20
39695;DHT22;25367;-35.352;149.036;2024-03-06T22:23:42;24.80;48.20
39695;DHT22;25367;-35.352;149.036;2024-03-06T22:26:12;24.80;48.80
39695;DHT22;25367;-35.352;149.036;2024-03-06T22:28:41;24.80;48.20
39695;DHT22;25367;-35.352;149.036;2024-03-06T22:31:10;24.90;48.20
39695;DHT22;25367;-35.352;149.036;2024-03-06T22:33:40;24.90;48.50
39695;DHT22;25367;-35.352;149.036;2024-03-06T22:36:17;25.00;48.30
39695;DHT22;25367;-35.352;149.036;2024-03-06T22:38:47;25.00;48.30
39695;DHT22;25367;-35.352;149.036;2024-03-06T22:41:20;25.00;48.30
39695;DHT22;25367;-35.352;149.036;2024-03-06T22:43:49;25.00;48.40
39695;DHT22;25367;-35.352;149.036;2024-03-06T22:46:18;25.00;48.10
39695;DHT22;25367;-35.352;149.036;2024-03-06T22:48:48;25.00;48.60
39695;DHT22;25367;-35.352;149.036;2024-03-06T22:51:19;25.10;48.60
39695;DHT22;25367;-35.352;149.036;2024-03-06T22:53:49;25.10;48.60
39695;DHT22;25367;-35.352;149.036;2024-03-06T22:56:18;25.10;48.50
39695;DHT22;25367;-35.352;149.036;2024-03-06T22:58:47;25.20;48.60
39695;DHT22;25367;-35.352;149.036;2024-03-06T23:01:17;25.20;48.60
39695;DHT22;25367;-35.352;149.036;2024-03-06T23:03:46;25.30;48.60
39695;DHT22;25367;-35.352;149.036;2024-03-06T23:06:18;25.30;48.60
39695;DHT22;25367;-35.352;149.036;2024-03-06T23:08:47;25.30;48.60
39695;DHT22;25367;-35.352;149.036;2024-03-06T23:11:16;25.40;48.70
39695;DHT22;25367;-35.352;149.036;2024-03-06T23:13:46;25.40;48.70
39695;DHT22;25367;-35.352;149.036;2024-03-06T23:16:15;25.40;48.60
39695;DHT22;25367;-35.352;149.036;2024-03-06T23:18:44;25.50;48.70
39695;DHT22;25367;-35.352;149.036;2024-03-06T23:21:14;25.60;48.80
39695;DHT22;25367;-35.352;149.036;2024-03-06T23:23:45;25.60;48.80
39695;DHT22;25367;-35.352;149.036;2024-03-06T23:26:15;25.60;49.30
39695;DHT22;25367;-35.352;149.036;2024-03-06T23:28:45;25.60;48.70
39695;DHT22;25367;-35.352;149.036;2024-03-06T23:31:14;25.60;48.80
39695;DHT22;25367;-35.352;149.036;2024-03-06T23:33:44;25.70;48.80
39695;DHT22;25367;-35.352;149.036;2024-03-06T23:36:13;25.70;48.70
39695;DHT22;25367;-35.352;149.036;2024-03-06T23:38:46;25.70;48.80
39695;DHT22;25367;-35.352;149.036;2024-03-06T23:41:15;25.80;48.80
39695;DHT22;25367;-35.352;149.036;2024-03-06T23:43:46;25.80;48.90
39695;DHT22;25367;-35.352;149.036;2024-03-06T23:46:16;25.80;48.80
39695;DHT22;25367;-35.352;149.036;2024-03-06T23:48:45;25.80;48.80
39695;DHT22;25367;-35.352;149.036;2024-03-06T23:51:15;25.90;48.80
39695;DHT22;25367;-35.352;149.036;2024-03-06T23:53:46;25.90;48.80
39695;DHT22;25367;-35.352;149.036;2024-03-06T23:56:16;25.90;48.80
39695;DHT22;25367;-35.352;149.036;2024-03-06T23:58:45;26.00;48.90
